Capitol Logistics 324


KRIV
March Air Reserve Base
Riverside, California, US
PHNL
Daniel K Inouye International Airport
Honolulu, Hawaii, US

Activity Log

Date Flight Route Aircraft Duration
12/11/2019 CPX324 SKYES4 OCN BEFIN C1316 DINTY R576 DENNS MAGGI3 B763 6h 00m
02/05/2019 CPX324 SKYES3 OCN SXC VTU RZS C1176 DINTY R576 DENNS KAENA2 B763 6h 08m

Route Details

Aircraft Information
Primary: Boeing 767-300BDSF
Backup: Not Available
Route Data
Distance: 2277nm
Sched. Duration: 6h 09m
Avg. Duration: 6h 04m (-5m)
Times Flown: 2
Recm'd Route: SKYES3 OCN MALIT C1177 FICKY R578 FOMAS R578 DEREC MAKEN LNY JULLE5
Planned Altitude: 32,000ft
Origin Wx: KRIV 222058Z AUTO 31009KT 10SM CLR 24/14 A2987 RMK AO2 SLP105 T02430135 57014
Dest. Wx: PHNL 222053Z 16007KT 10SM FEW025 SCT039 BKN050 28/22 A2993 RMK AO2 SLP136 VCSH W T02780217 50003
Notes:

Financial History
Total Freight: 183,402lbs
Average Load: 91,701lbs/flt
Fuel Used: 136,650lbs
Avg. Fuel Used: 68,325lbs/flt
Fuel Expense: $94,289
Avg. Fuel Expense: $47,144
Avg. Fuel Cost: $0.69/lbs
Total Gross Income: $250,102
Pilot Pay: $458
Total Expenses: $27,115
Total Revenue: $125,554
Average Revenue: $125,050.76